sensor_id;sensor_type;location;lat;lon;timestamp;temperature;humidity
19031;DHT22;9648;51.130;13.978;2022-07-18T00:02:05;11.50;99.90
19031;DHT22;9648;51.130;13.978;2022-07-18T00:04:35;11.40;99.90
19031;DHT22;9648;51.130;13.978;2022-07-18T00:07:02;11.40;99.90
19031;DHT22;9648;51.130;13.978;2022-07-18T00:09:28;11.40;99.90
19031;DHT22;9648;51.130;13.978;2022-07-18T00:11:55;11.40;99.90
19031;DHT22;9648;51.130;13.978;2022-07-18T00:14:22;11.40;99.90
19031;DHT22;9648;51.130;13.978;2022-07-18T00:16:52;11.40;99.90
19031;DHT22;9648;51.130;13.978;2022-07-18T00:19:19;11.30;99.90
19031;DHT22;9648;51.130;13.978;2022-07-18T00:21:46;11.30;99.90
19031;DHT22;9648;51.130;13.978;2022-07-18T00:24:12;11.20;99.90
19031;DHT22;9648;51.130;13.978;2022-07-18T00:26:39;11.20;99.90
19031;DHT22;9648;51.130;13.978;2022-07-18T00:29:06;11.20;99.90
19031;DHT22;9648;51.130;13.978;2022-07-18T00:31:33;11.20;99.90
19031;DHT22;9648;51.130;13.978;2022-07-18T00:34:02;11.20;99.90
19031;DHT22;9648;51.130;13.978;2022-07-18T00:36:30;11.20;99.90
19031;DHT22;9648;51.130;13.978;2022-07-18T00:38:57;11.20;99.90
19031;DHT22;9648;51.130;13.978;2022-07-18T00:41:25;11.20;99.90
19031;DHT22;9648;51.130;13.978;2022-07-18T00:43:52;11.20;99.90
19031;DHT22;9648;51.130;13.978;2022-07-18T00:46:21;11.10;99.90
19031;DHT22;9648;51.130;13.978;2022-07-18T00:48:49;11.10;99.90
19031;DHT22;9648;51.130;13.978;2022-07-18T00:51:17;11.10;99.90
19031;DHT22;9648;51.130;13.978;2022-07-18T00:53:45;11.10;99.90
19031;DHT22;9648;51.130;13.978;2022-07-18T00:56:12;11.00;99.90
19031;DHT22;9648;51.130;13.978;2022-07-18T00:58:40;11.00;99.90
19031;DHT22;9648;51.130;13.978;2022-07-18T01:01:07;11.00;99.90
19031;DHT22;9648;51.130;13.978;2022-07-18T01:03:51;10.90;99.90
19031;DHT22;9648;51.130;13.978;2022-07-18T01:06:22;10.90;99.90
19031;DHT22;9648;51.130;13.978;2022-07-18T01:08:50;10.90;99.90
19031;DHT22;9648;51.130;13.978;2022-07-18T01:11:17;10.80;99.90
19031;DHT22;9648;51.130;13.978;2022-07-18T01:13:44;10.80;99.90
19031;DHT22;9648;51.130;13.978;2022-07-18T01:16:10;10.80;99.90
19031;DHT22;9648;51.130;13.978;2022-07-18T01:18:44;10.70;99.90
19031;DHT22;9648;51.130;13.978;2022-07-18T01:21:12;10.70;99.90
19031;DHT22;9648;51.130;13.978;2022-07-18T01:23:39;10.70;99.90
19031;DHT22;9648;51.130;13.978;2022-07-18T01:26:06;10.70;99.90
19031;DHT22;9648;51.130;13.978;2022-07-18T01:28:33;10.70;99.90
19031;DHT22;9648;51.130;13.978;2022-07-18T01:31:00;10.70;99.90
19031;DHT22;9648;51.130;13.978;2022-07-18T01:33:26;10.70;99.90
19031;DHT22;9648;51.130;13.978;2022-07-18T01:35:53;10.60;99.90
19031;DHT22;9648;51.130;13.978;2022-07-18T01:38:21;10.60;99.90
19031;DHT22;9648;51.130;13.978;2022-07-18T01:40:48;10.60;99.90
19031;DHT22;9648;51.130;13.978;2022-07-18T01:43:15;10.60;99.90
19031;DHT22;9648;51.130;13.978;2022-07-18T01:45:42;10.60;99.90
19031;DHT22;9648;51.130;13.978;2022-07-18T01:48:09;10.50;99.90
19031;DHT22;9648;51.130;13.978;2022-07-18T01:50:36;10.50;99.90
19031;DHT22;9648;51.130;13.978;2022-07-18T01:53:03;10.50;99.90
19031;DHT22;9648;51.130;13.978;2022-07-18T01:55:31;10.50;99.90
19031;DHT22;9648;51.130;13.978;2022-07-18T01:57:59;10.40;99.90
19031;DHT22;9648;51.130;13.978;2022-07-18T02:00:26;10.40;99.90
19031;DHT22;9648;51.130;13.978;2022-07-18T02:02:53;10.40;99.90
19031;DHT22;9648;51.130;13.978;2022-07-18T02:05:20;10.30;99.90
19031;DHT22;9648;51.130;13.978;2022-07-18T02:07:46;10.30;99.90
19031;DHT22;9648;51.130;13.978;2022-07-18T02:10:15;10.20;99.90
19031;DHT22;9648;51.130;13.978;2022-07-18T02:12:44;10.30;99.90
19031;DHT22;9648;51.130;13.978;2022-07-18T02:15:13;10.20;99.90
19031;DHT22;9648;51.130;13.978;2022-07-18T02:17:41;10.20;99.90
19031;DHT22;9648;51.130;13.978;2022-07-18T02:20:10;10.20;99.90
19031;DHT22;9648;51.130;13.978;2022-07-18T02:22:38;10.10;99.90
19031;DHT22;9648;51.130;13.978;2022-07-18T02:25:08;10.10;99.90
19031;DHT22;9648;51.130;13.978;2022-07-18T02:27:37;10.10;99.90
19031;DHT22;9648;51.130;13.978;2022-07-18T02:30:07;10.10;99.90
19031;DHT22;9648;51.130;13.978;2022-07-18T02:32:34;10.00;99.90
19031;DHT22;9648;51.130;13.978;2022-07-18T02:35:04;10.00;99.90
19031;DHT22;9648;51.130;13.978;2022-07-18T02:37:31;10.00;99.90
19031;DHT22;9648;51.130;13.978;2022-07-18T02:39:57;10.00;99.90
19031;DHT22;9648;51.130;13.978;2022-07-18T02:42:24;9.90;99.90
19031;DHT22;9648;51.130;13.978;2022-07-18T02:44:51;10.00;99.90
19031;DHT22;9648;51.130;13.978;2022-07-18T02:47:21;9.90;99.90
19031;DHT22;9648;51.130;13.978;2022-07-18T02:49:48;9.90;99.90
19031;DHT22;9648;51.130;13.978;2022-07-18T02:52:15;9.90;99.90
19031;DHT22;9648;51.130;13.978;2022-07-18T02:54:42;9.90;99.90
19031;DHT22;9648;51.130;13.978;2022-07-18T02:57:09;9.90;99.90
19031;DHT22;9648;51.130;13.978;2022-07-18T02:59:35;9.90;99.90
19031;DHT22;9648;51.130;13.978;2022-07-18T03:02:02;9.90;99.90
19031;DHT22;9648;51.130;13.978;2022-07-18T03:04:31;9.90;99.90
19031;DHT22;9648;51.130;13.978;2022-07-18T03:06:58;9.80;99.90
19031;DHT22;9648;51.130;13.978;2022-07-18T03:09:25;9.80;99.90
19031;DHT22;9648;51.130;13.978;2022-07-18T03:11:53;9.80;99.90
19031;DHT22;9648;51.130;13.978;2022-07-18T03:14:21;9.80;99.90
19031;DHT22;9648;51.130;13.978;2022-07-18T03:16:48;9.80;99.90
19031;DHT22;9648;51.130;13.978;2022-07-18T03:19:15;9.80;99.90
19031;DHT22;9648;51.130;13.978;2022-07-18T03:21:43;9.80;99.90
19031;DHT22;9648;51.130;13.978;2022-07-18T03:24:13;9.80;99.90
19031;DHT22;9648;51.130;13.978;2022-07-18T03:26:41;9.80;99.90
19031;DHT22;9648;51.130;13.978;2022-07-18T03:29:08;9.80;99.90
19031;DHT22;9648;51.130;13.978;2022-07-18T03:31:35;9.80;99.90
19031;DHT22;9648;51.130;13.978;2022-07-18T03:34:02;9.70;99.90
19031;DHT22;9648;51.130;13.978;2022-07-18T03:36:29;9.70;99.90
19031;DHT22;9648;51.130;13.978;2022-07-18T03:38:57;9.70;99.90
19031;DHT22;9648;51.130;13.978;2022-07-18T03:41:24;9.70;99.90
19031;DHT22;9648;51.130;13.978;2022-07-18T03:43:51;9.70;99.90
19031;DHT22;9648;51.130;13.978;2022-07-18T03:46:17;9.70;99.90
19031;DHT22;9648;51.130;13.978;2022-07-18T03:48:44;9.70;99.90
19031;DHT22;9648;51.130;13.978;2022-07-18T03:51:11;9.80;99.90
19031;DHT22;9648;51.130;13.978;2022-07-18T03:53:37;9.80;99.90
19031;DHT22;9648;51.130;13.978;2022-07-18T03:56:06;9.80;99.90
19031;DHT22;9648;51.130;13.978;2022-07-18T03:58:33;9.80;99.90
19031;DHT22;9648;51.130;13.978;2022-07-18T04:01:00;9.90;99.90
19031;DHT22;9648;51.130;13.978;2022-07-18T04:03:27;9.90;99.90
19031;DHT22;9648;51.130;13.978;2022-07-18T04:05:53;10.00;99.90
19031;DHT22;9648;51.130;13.978;2022-07-18T04:08:20;10.00;99.90
19031;DHT22;9648;51.130;13.978;2022-07-18T04:10:47;10.10;99.90
19031;DHT22;9648;51.130;13.978;2022-07-18T04:13:15;10.10;99.90
19031;DHT22;9648;51.130;13.978;2022-07-18T04:15:42;10.10;99.90
19031;DHT22;9648;51.130;13.978;2022-07-18T04:18:11;10.10;99.90
19031;DHT22;9648;51.130;13.978;2022-07-18T04:20:38;10.20;99.90
19031;DHT22;9648;51.130;13.978;2022-07-18T04:23:08;10.20;99.90
19031;DHT22;9648;51.130;13.978;2022-07-18T04:25:40;10.20;99.90
19031;DHT22;9648;51.130;13.978;2022-07-18T04:28:08;10.30;99.90
19031;DHT22;9648;51.130;13.978;2022-07-18T04:30:38;10.40;99.90
19031;DHT22;9648;51.130;13.978;2022-07-18T04:33:06;10.40;99.90
19031;DHT22;9648;51.130;13.978;2022-07-18T04:35:34;10.50;99.90
19031;DHT22;9648;51.130;13.978;2022-07-18T04:38:03;10.60;99.90
19031;DHT22;9648;51.130;13.978;2022-07-18T04:40:32;10.60;99.90
19031;DHT22;9648;51.130;13.978;2022-07-18T04:42:59;10.70;99.90
19031;DHT22;9648;51.130;13.978;2022-07-18T04:45:26;10.70;99.90
19031;DHT22;9648;51.130;13.978;2022-07-18T04:47:57;10.80;99.90
19031;DHT22;9648;51.130;13.978;2022-07-18T04:50:24;10.90;99.90
19031;DHT22;9648;51.130;13.978;2022-07-18T04:52:52;11.00;99.90
19031;DHT22;9648;51.130;13.978;2022-07-18T04:55:20;11.10;99.90
19031;DHT22;9648;51.130;13.978;2022-07-18T04:57:48;11.20;99.90
19031;DHT22;9648;51.130;13.978;2022-07-18T05:00:16;11.20;99.90
19031;DHT22;9648;51.130;13.978;2022-07-18T05:02:44;11.30;99.90
19031;DHT22;9648;51.130;13.978;2022-07-18T05:05:14;11.40;99.90
19031;DHT22;9648;51.130;13.978;2022-07-18T05:07:43;11.50;99.90
19031;DHT22;9648;51.130;13.978;2022-07-18T05:10:12;11.50;99.90
19031;DHT22;9648;51.130;13.978;2022-07-18T05:12:41;11.60;99.90
19031;DHT22;9648;51.130;13.978;2022-07-18T05:15:10;11.70;99.90
19031;DHT22;9648;51.130;13.978;2022-07-18T05:17:37;11.80;99.90
19031;DHT22;9648;51.130;13.978;2022-07-18T05:20:05;11.90;99.90
19031;DHT22;9648;51.130;13.978;2022-07-18T05:22:33;12.00;99.90
19031;DHT22;9648;51.130;13.978;2022-07-18T05:25:00;12.20;99.90
19031;DHT22;9648;51.130;13.978;2022-07-18T05:27:27;12.30;99.90
19031;DHT22;9648;51.130;13.978;2022-07-18T05:29:54;12.40;99.90
19031;DHT22;9648;51.130;13.978;2022-07-18T05:32:21;12.50;99.90
19031;DHT22;9648;51.130;13.978;2022-07-18T05:34:48;12.70;99.90
19031;DHT22;9648;51.130;13.978;2022-07-18T05:37:15;12.80;99.90
19031;DHT22;9648;51.130;13.978;2022-07-18T05:39:43;12.90;99.90
19031;DHT22;9648;51.130;13.978;2022-07-18T05:42:09;13.10;99.90
19031;DHT22;9648;51.130;13.978;2022-07-18T05:44:36;13.20;99.90
19031;DHT22;9648;51.130;13.978;2022-07-18T05:47:03;13.30;99.90
19031;DHT22;9648;51.130;13.978;2022-07-18T05:49:32;13.50;99.90
19031;DHT22;9648;51.130;13.978;2022-07-18T05:51:59;13.60;99.90
19031;DHT22;9648;51.130;13.978;2022-07-18T05:54:25;13.70;99.90
19031;DHT22;9648;51.130;13.978;2022-07-18T05:56:55;13.90;99.90
19031;DHT22;9648;51.130;13.978;2022-07-18T05:59:22;14.00;99.90
19031;DHT22;9648;51.130;13.978;2022-07-18T06:01:48;14.10;99.90
19031;DHT22;9648;51.130;13.978;2022-07-18T06:04:15;14.20;99.90
19031;DHT22;9648;51.130;13.978;2022-07-18T06:06:42;14.40;99.90
19031;DHT22;9648;51.130;13.978;2022-07-18T06:09:10;14.50;99.90
19031;DHT22;9648;51.130;13.978;2022-07-18T06:11:38;14.70;99.90
19031;DHT22;9648;51.130;13.978;2022-07-18T06:14:09;14.90;99.90
19031;DHT22;9648;51.130;13.978;2022-07-18T06:16:36;15.00;99.90
19031;DHT22;9648;51.130;13.978;2022-07-18T06:19:03;15.20;99.90
19031;DHT22;9648;51.130;13.978;2022-07-18T06:21:30;15.40;99.90
19031;DHT22;9648;51.130;13.978;2022-07-18T06:23:56;15.50;99.90
19031;DHT22;9648;51.130;13.978;2022-07-18T06:26:23;15.70;99.90
19031;DHT22;9648;51.130;13.978;2022-07-18T06:28:50;15.80;99.90
19031;DHT22;9648;51.130;13.978;2022-07-18T06:31:18;16.00;99.90
19031;DHT22;9648;51.130;13.978;2022-07-18T06:33:45;16.20;99.90
19031;DHT22;9648;51.130;13.978;2022-07-18T06:36:12;16.30;99.90
19031;DHT22;9648;51.130;13.978;2022-07-18T06:38:39;16.40;99.90
19031;DHT22;9648;51.130;13.978;2022-07-18T06:41:06;16.50;99.90
19031;DHT22;9648;51.130;13.978;2022-07-18T06:43:36;16.60;99.90
19031;DHT22;9648;51.130;13.978;2022-07-18T06:46:03;16.70;99.50
19031;DHT22;9648;51.130;13.978;2022-07-18T06:48:31;16.80;98.50
19031;DHT22;9648;51.130;13.978;2022-07-18T06:51:00;17.00;97.30
19031;DHT22;9648;51.130;13.978;2022-07-18T06:53:29;17.10;96.30
19031;DHT22;9648;51.130;13.978;2022-07-18T06:55:56;17.20;94.30
19031;DHT22;9648;51.130;13.978;2022-07-18T06:58:23;17.40;92.70
19031;DHT22;9648;51.130;13.978;2022-07-18T07:00:50;17.60;91.00
19031;DHT22;9648;51.130;13.978;2022-07-18T07:03:17;17.70;90.40
19031;DHT22;9648;51.130;13.978;2022-07-18T07:05:45;17.80;82.00
19031;DHT22;9648;51.130;13.978;2022-07-18T07:08:12;18.00;80.60
19031;DHT22;9648;51.130;13.978;2022-07-18T07:10:39;18.10;81.30
19031;DHT22;9648;51.130;13.978;2022-07-18T07:13:06;18.20;80.00
19031;DHT22;9648;51.130;13.978;2022-07-18T07:15:33;18.30;77.60
19031;DHT22;9648;51.130;13.978;2022-07-18T07:17:59;18.40;73.50
19031;DHT22;9648;51.130;13.978;2022-07-18T07:20:29;18.50;67.00
19031;DHT22;9648;51.130;13.978;2022-07-18T07:22:59;18.60;64.90
19031;DHT22;9648;51.130;13.978;2022-07-18T07:25:30;18.70;62.50
19031;DHT22;9648;51.130;13.978;2022-07-18T07:27:57;18.90;60.40
19031;DHT22;9648;51.130;13.978;2022-07-18T07:30:23;19.10;58.20
19031;DHT22;9648;51.130;13.978;2022-07-18T07:32:50;19.30;57.70
19031;DHT22;9648;51.130;13.978;2022-07-18T07:35:18;19.40;57.00
19031;DHT22;9648;51.130;13.978;2022-07-18T07:37:48;19.60;56.60
19031;DHT22;9648;51.130;13.978;2022-07-18T07:40:17;19.90;54.10
19031;DHT22;9648;51.130;13.978;2022-07-18T07:42:44;20.00;53.40
19031;DHT22;9648;51.130;13.978;2022-07-18T07:45:11;20.10;52.30
19031;DHT22;9648;51.130;13.978;2022-07-18T07:47:39;20.20;52.40
19031;DHT22;9648;51.130;13.978;2022-07-18T07:50:08;20.30;52.10
19031;DHT22;9648;51.130;13.978;2022-07-18T07:52:36;20.40;51.60
19031;DHT22;9648;51.130;13.978;2022-07-18T07:55:03;20.40;51.40
19031;DHT22;9648;51.130;13.978;2022-07-18T07:57:31;20.50;51.10
19031;DHT22;9648;51.130;13.978;2022-07-18T07:59:58;20.60;52.30
19031;DHT22;9648;51.130;13.978;2022-07-18T08:02:25;20.70;52.70
19031;DHT22;9648;51.130;13.978;2022-07-18T08:04:51;20.70;52.60
19031;DHT22;9648;51.130;13.978;2022-07-18T08:07:18;20.80;52.40
19031;DHT22;9648;51.130;13.978;2022-07-18T08:09:46;20.80;52.70
19031;DHT22;9648;51.130;13.978;2022-07-18T08:12:13;20.90;50.30
19031;DHT22;9648;51.130;13.978;2022-07-18T08:14:41;21.10;49.50
19031;DHT22;9648;51.130;13.978;2022-07-18T08:17:08;21.20;49.10
19031;DHT22;9648;51.130;13.978;2022-07-18T08:19:34;21.30;48.30
19031;DHT22;9648;51.130;13.978;2022-07-18T08:22:01;21.30;46.90
19031;DHT22;9648;51.130;13.978;2022-07-18T08:24:28;21.40;48.30
19031;DHT22;9648;51.130;13.978;2022-07-18T08:26:55;21.50;45.90
19031;DHT22;9648;51.130;13.978;2022-07-18T08:29:22;21.50;45.30
19031;DHT22;9648;51.130;13.978;2022-07-18T08:31:50;21.60;44.30
19031;DHT22;9648;51.130;13.978;2022-07-18T08:34:16;21.70;44.80
19031;DHT22;9648;51.130;13.978;2022-07-18T08:36:43;21.80;44.00
19031;DHT22;9648;51.130;13.978;2022-07-18T08:39:10;21.90;42.90
19031;DHT22;9648;51.130;13.978;2022-07-18T08:41:37;22.00;44.80
19031;DHT22;9648;51.130;13.978;2022-07-18T08:44:08;22.00;43.90
19031;DHT22;9648;51.130;13.978;2022-07-18T08:46:36;22.10;42.40
19031;DHT22;9648;51.130;13.978;2022-07-18T08:49:07;22.20;43.00
19031;DHT22;9648;51.130;13.978;2022-07-18T08:51:34;22.40;42.50
19031;DHT22;9648;51.130;13.978;2022-07-18T08:54:02;22.50;41.50
19031;DHT22;9648;51.130;13.978;2022-07-18T08:56:30;22.50;42.10
19031;DHT22;9648;51.130;13.978;2022-07-18T08:58:56;22.60;42.50
19031;DHT22;9648;51.130;13.978;2022-07-18T09:01:23;22.70;41.90
19031;DHT22;9648;51.130;13.978;2022-07-18T09:03:52;22.80;40.60
19031;DHT22;9648;51.130;13.978;2022-07-18T09:06:43;22.80;39.20
19031;DHT22;9648;51.130;13.978;2022-07-18T09:09:12;22.90;40.10
19031;DHT22;9648;51.130;13.978;2022-07-18T09:11:50;23.00;40.10
19031;DHT22;9648;51.130;13.978;2022-07-18T09:14:32;23.10;39.20
19031;DHT22;9648;51.130;13.978;2022-07-18T09:17:08;23.20;39.20
19031;DHT22;9648;51.130;13.978;2022-07-18T09:19:36;23.30;38.00
19031;DHT22;9648;51.130;13.978;2022-07-18T09:22:19;23.40;38.40
19031;DHT22;9648;51.130;13.978;2022-07-18T09:24:58;23.40;36.80
19031;DHT22;9648;51.130;13.978;2022-07-18T09:27:34;23.60;37.90
19031;DHT22;9648;51.130;13.978;2022-07-18T09:30:28;23.70;36.00
19031;DHT22;9648;51.130;13.978;2022-07-18T09:33:06;23.90;37.50
19031;DHT22;9648;51.130;13.978;2022-07-18T09:35:35;24.00;35.50
19031;DHT22;9648;51.130;13.978;2022-07-18T09:38:06;24.10;36.30
19031;DHT22;9648;51.130;13.978;2022-07-18T09:40:35;24.10;34.80
19031;DHT22;9648;51.130;13.978;2022-07-18T09:43:03;24.10;35.20
19031;DHT22;9648;51.130;13.978;2022-07-18T09:45:31;24.10;35.60
19031;DHT22;9648;51.130;13.978;2022-07-18T09:47:59;24.20;36.50
19031;DHT22;9648;51.130;13.978;2022-07-18T09:50:29;24.30;37.00
19031;DHT22;9648;51.130;13.978;2022-07-18T09:53:11;24.50;36.50
19031;DHT22;9648;51.130;13.978;2022-07-18T09:55:43;24.60;35.90
19031;DHT22;9648;51.130;13.978;2022-07-18T09:58:10;24.70;35.40
19031;DHT22;9648;51.130;13.978;2022-07-18T10:00:39;24.80;36.40
19031;DHT22;9648;51.130;13.978;2022-07-18T10:03:08;24.90;34.80
19031;DHT22;9648;51.130;13.978;2022-07-18T10:05:36;25.00;34.40
19031;DHT22;9648;51.130;13.978;2022-07-18T10:08:06;25.20;33.60
19031;DHT22;9648;51.130;13.978;2022-07-18T10:10:35;25.30;33.70
19031;DHT22;9648;51.130;13.978;2022-07-18T10:13:03;25.20;33.60
19031;DHT22;9648;51.130;13.978;2022-07-18T10:15:31;25.20;32.60
19031;DHT22;9648;51.130;13.978;2022-07-18T10:17:59;25.20;32.40
19031;DHT22;9648;51.130;13.978;2022-07-18T10:20:32;25.20;32.10
19031;DHT22;9648;51.130;13.978;2022-07-18T10:23:03;25.20;31.50
19031;DHT22;9648;51.130;13.978;2022-07-18T10:25:34;25.20;33.50
19031;DHT22;9648;51.130;13.978;2022-07-18T10:28:05;25.40;33.30
19031;DHT22;9648;51.130;13.978;2022-07-18T10:30:35;25.40;33.10
19031;DHT22;9648;51.130;13.978;2022-07-18T10:33:03;25.50;31.50
19031;DHT22;9648;51.130;13.978;2022-07-18T10:35:59;25.50;31.70
19031;DHT22;9648;51.130;13.978;2022-07-18T10:38:26;25.60;31.70
19031;DHT22;9648;51.130;13.978;2022-07-18T10:41:06;25.60;29.60
19031;DHT22;9648;51.130;13.978;2022-07-18T10:43:38;25.60;31.90
19031;DHT22;9648;51.130;13.978;2022-07-18T10:46:06;25.60;30.60
19031;DHT22;9648;51.130;13.978;2022-07-18T10:48:54;25.80;33.10
19031;DHT22;9648;51.130;13.978;2022-07-18T10:51:29;26.00;32.10
19031;DHT22;9648;51.130;13.978;2022-07-18T10:54:10;26.00;30.00
19031;DHT22;9648;51.130;13.978;2022-07-18T10:57:10;26.00;30.00
19031;DHT22;9648;51.130;13.978;2022-07-18T10:59:39;26.20;31.10
19031;DHT22;9648;51.130;13.978;2022-07-18T11:02:34;26.30;29.50
19031;DHT22;9648;51.130;13.978;2022-07-18T11:05:01;26.40;29.50
19031;DHT22;9648;51.130;13.978;2022-07-18T11:07:28;26.50;30.30
19031;DHT22;9648;51.130;13.978;2022-07-18T11:09:54;26.50;30.90
19031;DHT22;9648;51.130;13.978;2022-07-18T11:12:27;26.60;32.00
19031;DHT22;9648;51.130;13.978;2022-07-18T11:15:12;26.70;31.70
19031;DHT22;9648;51.130;13.978;2022-07-18T11:18:04;26.90;30.60
19031;DHT22;9648;51.130;13.978;2022-07-18T11:20:37;26.90;28.40
19031;DHT22;9648;51.130;13.978;2022-07-18T11:23:12;26.90;29.10
19031;DHT22;9648;51.130;13.978;2022-07-18T11:25:40;26.90;30.00
19031;DHT22;9648;51.130;13.978;2022-07-18T11:28:09;26.90;28.80
19031;DHT22;9648;51.130;13.978;2022-07-18T11:30:36;27.00;30.00
19031;DHT22;9648;51.130;13.978;2022-07-18T11:33:04;27.10;29.50
19031;DHT22;9648;51.130;13.978;2022-07-18T11:35:31;27.20;29.20
19031;DHT22;9648;51.130;13.978;2022-07-18T11:38:04;27.30;30.00
19031;DHT22;9648;51.130;13.978;2022-07-18T11:40:32;27.40;29.30
19031;DHT22;9648;51.130;13.978;2022-07-18T11:42:59;27.40;29.80
19031;DHT22;9648;51.130;13.978;2022-07-18T11:45:27;27.50;29.00
19031;DHT22;9648;51.130;13.978;2022-07-18T11:47:53;27.60;29.10
19031;DHT22;9648;51.130;13.978;2022-07-18T11:50:35;27.70;29.10
19031;DHT22;9648;51.130;13.978;2022-07-18T11:53:02;27.70;28.60
19031;DHT22;9648;51.130;13.978;2022-07-18T11:55:33;27.70;28.10
19031;DHT22;9648;51.130;13.978;2022-07-18T11:58:06;27.70;28.70
19031;DHT22;9648;51.130;13.978;2022-07-18T12:00:35;27.90;28.90
19031;DHT22;9648;51.130;13.978;2022-07-18T12:03:02;28.00;28.90
19031;DHT22;9648;51.130;13.978;2022-07-18T12:05:32;28.20;29.70
19031;DHT22;9648;51.130;13.978;2022-07-18T12:07:59;28.20;27.50
19031;DHT22;9648;51.130;13.978;2022-07-18T12:10:26;28.30;27.50
19031;DHT22;9648;51.130;13.978;2022-07-18T12:12:53;28.30;27.00
19031;DHT22;9648;51.130;13.978;2022-07-18T12:15:22;28.30;28.30
19031;DHT22;9648;51.130;13.978;2022-07-18T12:17:50;28.30;28.90
19031;DHT22;9648;51.130;13.978;2022-07-18T12:20:19;28.30;27.80
19031;DHT22;9648;51.130;13.978;2022-07-18T12:23:05;28.30;28.80
19031;DHT22;9648;51.130;13.978;2022-07-18T12:25:55;28.30;28.90
19031;DHT22;9648;51.130;13.978;2022-07-18T12:28:24;28.30;27.50
19031;DHT22;9648;51.130;13.978;2022-07-18T12:30:51;28.30;27.50
19031;DHT22;9648;51.130;13.978;2022-07-18T12:33:20;28.30;27.90
19031;DHT22;9648;51.130;13.978;2022-07-18T12:35:55;28.20;27.20
19031;DHT22;9648;51.130;13.978;2022-07-18T12:38:22;28.00;27.50
19031;DHT22;9648;51.130;13.978;2022-07-18T12:40:50;28.00;27.70
19031;DHT22;9648;51.130;13.978;2022-07-18T12:43:23;28.10;28.40
19031;DHT22;9648;51.130;13.978;2022-07-18T12:45:52;28.20;27.10
19031;DHT22;9648;51.130;13.978;2022-07-18T12:48:20;28.40;26.80
19031;DHT22;9648;51.130;13.978;2022-07-18T12:50:55;28.40;26.10
19031;DHT22;9648;51.130;13.978;2022-07-18T12:53:22;28.40;27.20
19031;DHT22;9648;51.130;13.978;2022-07-18T12:55:49;28.40;27.40
19031;DHT22;9648;51.130;13.978;2022-07-18T12:58:15;28.40;27.00
19031;DHT22;9648;51.130;13.978;2022-07-18T13:00:42;28.60;27.70
19031;DHT22;9648;51.130;13.978;2022-07-18T13:03:09;28.80;27.20
19031;DHT22;9648;51.130;13.978;2022-07-18T13:05:37;28.80;26.90
19031;DHT22;9648;51.130;13.978;2022-07-18T13:08:04;28.90;27.40
19031;DHT22;9648;51.130;13.978;2022-07-18T13:10:33;28.90;26.20
19031;DHT22;9648;51.130;13.978;2022-07-18T13:13:01;28.90;26.00
19031;DHT22;9648;51.130;13.978;2022-07-18T13:15:28;28.90;26.20
19031;DHT22;9648;51.130;13.978;2022-07-18T13:17:55;28.90;25.80
19031;DHT22;9648;51.130;13.978;2022-07-18T13:20:22;28.70;26.20
19031;DHT22;9648;51.130;13.978;2022-07-18T13:22:50;28.50;26.30
19031;DHT22;9648;51.130;13.978;2022-07-18T13:25:16;28.60;26.90
19031;DHT22;9648;51.130;13.978;2022-07-18T13:27:43;28.50;26.10
19031;DHT22;9648;51.130;13.978;2022-07-18T13:30:11;28.50;27.10
19031;DHT22;9648;51.130;13.978;2022-07-18T13:32:38;28.60;26.60
19031;DHT22;9648;51.130;13.978;2022-07-18T13:35:05;28.70;26.40
19031;DHT22;9648;51.130;13.978;2022-07-18T13:37:32;28.80;26.10
19031;DHT22;9648;51.130;13.978;2022-07-18T13:40:00;28.90;26.00
19031;DHT22;9648;51.130;13.978;2022-07-18T13:42:27;28.90;26.70
19031;DHT22;9648;51.130;13.978;2022-07-18T13:44:53;28.90;26.80
19031;DHT22;9648;51.130;13.978;2022-07-18T13:47:20;28.90;26.50
19031;DHT22;9648;51.130;13.978;2022-07-18T13:49:47;28.90;26.00
19031;DHT22;9648;51.130;13.978;2022-07-18T13:52:13;28.90;26.30
19031;DHT22;9648;51.130;13.978;2022-07-18T13:54:40;28.70;25.90
19031;DHT22;9648;51.130;13.978;2022-07-18T13:57:09;28.70;27.90
19031;DHT22;9648;51.130;13.978;2022-07-18T13:59:36;28.70;27.20
19031;DHT22;9648;51.130;13.978;2022-07-18T14:02:03;28.60;26.20
19031;DHT22;9648;51.130;13.978;2022-07-18T14:04:29;28.50;27.60
19031;DHT22;9648;51.130;13.978;2022-07-18T14:06:56;28.40;28.00
19031;DHT22;9648;51.130;13.978;2022-07-18T14:09:23;28.40;28.60
19031;DHT22;9648;51.130;13.978;2022-07-18T14:11:49;28.40;28.00
19031;DHT22;9648;51.130;13.978;2022-07-18T14:14:17;28.40;27.80
19031;DHT22;9648;51.130;13.978;2022-07-18T14:16:44;28.30;27.30
19031;DHT22;9648;51.130;13.978;2022-07-18T14:19:11;28.30;28.40
19031;DHT22;9648;51.130;13.978;2022-07-18T14:21:38;28.30;28.20
19031;DHT22;9648;51.130;13.978;2022-07-18T14:24:05;28.40;27.90
19031;DHT22;9648;51.130;13.978;2022-07-18T14:26:32;28.40;28.70
19031;DHT22;9648;51.130;13.978;2022-07-18T14:28:59;28.40;26.70
19031;DHT22;9648;51.130;13.978;2022-07-18T14:31:27;28.30;27.10
19031;DHT22;9648;51.130;13.978;2022-07-18T14:33:54;28.30;28.70
19031;DHT22;9648;51.130;13.978;2022-07-18T14:36:21;28.30;28.00
19031;DHT22;9648;51.130;13.978;2022-07-18T14:38:48;28.30;27.10
19031;DHT22;9648;51.130;13.978;2022-07-18T14:41:14;28.20;26.80
19031;DHT22;9648;51.130;13.978;2022-07-18T14:43:41;28.20;27.10
19031;DHT22;9648;51.130;13.978;2022-07-18T14:46:08;28.30;27.00
19031;DHT22;9648;51.130;13.978;2022-07-18T14:48:36;28.20;26.40
19031;DHT22;9648;51.130;13.978;2022-07-18T14:51:03;28.20;27.20
19031;DHT22;9648;51.130;13.978;2022-07-18T14:53:31;28.30;27.50
19031;DHT22;9648;51.130;13.978;2022-07-18T14:55:58;28.30;26.80
19031;DHT22;9648;51.130;13.978;2022-07-18T14:58:25;28.30;27.60
19031;DHT22;9648;51.130;13.978;2022-07-18T15:00:51;28.30;28.00
19031;DHT22;9648;51.130;13.978;2022-07-18T15:03:18;28.40;29.30
19031;DHT22;9648;51.130;13.978;2022-07-18T15:05:47;28.50;28.40
19031;DHT22;9648;51.130;13.978;2022-07-18T15:08:14;28.50;27.40
19031;DHT22;9648;51.130;13.978;2022-07-18T15:10:41;28.70;28.30
19031;DHT22;9648;51.130;13.978;2022-07-18T15:13:07;28.90;28.60
19031;DHT22;9648;51.130;13.978;2022-07-18T15:15:34;28.90;27.40
19031;DHT22;9648;51.130;13.978;2022-07-18T15:18:01;28.90;27.60
19031;DHT22;9648;51.130;13.978;2022-07-18T15:20:28;29.00;28.20
19031;DHT22;9648;51.130;13.978;2022-07-18T15:22:56;29.00;28.80
19031;DHT22;9648;51.130;13.978;2022-07-18T15:25:23;29.10;28.10
19031;DHT22;9648;51.130;13.978;2022-07-18T15:27:50;29.00;27.20
19031;DHT22;9648;51.130;13.978;2022-07-18T15:30:16;28.80;26.40
19031;DHT22;9648;51.130;13.978;2022-07-18T15:32:43;28.70;26.30
19031;DHT22;9648;51.130;13.978;2022-07-18T15:35:10;28.60;26.90
19031;DHT22;9648;51.130;13.978;2022-07-18T15:37:36;28.70;28.60
19031;DHT22;9648;51.130;13.978;2022-07-18T15:40:06;28.70;27.70
19031;DHT22;9648;51.130;13.978;2022-07-18T15:42:33;28.70;27.20